sensor_id;sensor_type;location;lat;lon;timestamp;P1;durP1;ratioP1;P2;durP2;ratioP2
8279;SDS011;8335;42.646;23.380;2023-09-30T00:00:12;13.77;;;5.60;;
8279;SDS011;8335;42.646;23.380;2023-09-30T00:02:39;11.57;;;5.88;;
8279;SDS011;8335;42.646;23.380;2023-09-30T00:05:07;16.17;;;5.77;;
8279;SDS011;8335;42.646;23.380;2023-09-30T00:07:35;13.77;;;6.40;;
8279;SDS011;8335;42.646;23.380;2023-09-30T00:10:02;11.43;;;5.78;;
8279;SDS011;8335;42.646;23.380;2023-09-30T00:12:29;11.45;;;5.88;;
8279;SDS011;8335;42.646;23.380;2023-09-30T00:14:56;12.77;;;6.47;;
8279;SDS011;8335;42.646;23.380;2023-09-30T00:17:23;11.73;;;5.70;;
8279;SDS011;8335;42.646;23.380;2023-09-30T00:19:50;14.77;;;5.87;;
8279;SDS011;8335;42.646;23.380;2023-09-30T00:22:18;13.37;;;6.13;;
8279;SDS011;8335;42.646;23.380;2023-09-30T00:24:45;10.27;;;5.78;;
8279;SDS011;8335;42.646;23.380;2023-09-30T00:27:12;9.38;;;5.85;;
8279;SDS011;8335;42.646;23.380;2023-09-30T00:29:39;13.10;;;6.45;;
8279;SDS011;8335;42.646;23.380;2023-09-30T00:32:05;12.52;;;6.03;;
8279;SDS011;8335;42.646;23.380;2023-09-30T00:34:33;13.60;;;6.57;;
8279;SDS011;8335;42.646;23.380;2023-09-30T00:37:00;16.23;;;6.55;;
8279;SDS011;8335;42.646;23.380;2023-09-30T00:39:28;13.18;;;6.82;;
8279;SDS011;8335;42.646;23.380;2023-09-30T00:41:56;11.03;;;5.70;;
8279;SDS011;8335;42.646;23.380;2023-09-30T00:44:24;11.70;;;6.23;;
8279;SDS011;8335;42.646;23.380;2023-09-30T00:46:51;11.90;;;5.83;;
8279;SDS011;8335;42.646;23.380;2023-09-30T00:49:18;10.82;;;6.35;;
8279;SDS011;8335;42.646;23.380;2023-09-30T00:51:45;12.77;;;6.60;;
8279;SDS011;8335;42.646;23.380;2023-09-30T00:54:12;11.63;;;6.17;;
8279;SDS011;8335;42.646;23.380;2023-09-30T00:56:43;16.05;;;6.00;;
8279;SDS011;8335;42.646;23.380;2023-09-30T00:59:11;13.63;;;5.80;;
8279;SDS011;8335;42.646;23.380;2023-09-30T01:01:39;9.80;;;5.33;;
8279;SDS011;8335;42.646;23.380;2023-09-30T01:04:07;13.23;;;6.03;;
8279;SDS011;8335;42.646;23.380;2023-09-30T01:06:33;9.33;;;6.33;;
8279;SDS011;8335;42.646;23.380;2023-09-30T01:09:00;12.10;;;6.27;;
8279;SDS011;8335;42.646;23.380;2023-09-30T01:11:28;9.20;;;6.30;;
8279;SDS011;8335;42.646;23.380;2023-09-30T01:13:56;9.85;;;6.40;;
8279;SDS011;8335;42.646;23.380;2023-09-30T01:16:23;14.73;;;6.90;;
8279;SDS011;8335;42.646;23.380;2023-09-30T01:18:50;14.38;;;6.88;;
8279;SDS011;8335;42.646;23.380;2023-09-30T01:21:18;14.97;;;6.17;;
8279;SDS011;8335;42.646;23.380;2023-09-30T01:23:46;12.63;;;6.10;;
8279;SDS011;8335;42.646;23.380;2023-09-30T01:26:13;14.20;;;5.93;;
8279;SDS011;8335;42.646;23.380;2023-09-30T01:28:40;9.90;;;6.00;;
8279;SDS011;8335;42.646;23.380;2023-09-30T01:31:07;16.00;;;6.97;;
8279;SDS011;8335;42.646;23.380;2023-09-30T01:33:34;12.05;;;5.53;;
8279;SDS011;8335;42.646;23.380;2023-09-30T01:36:01;11.87;;;6.07;;
8279;SDS011;8335;42.646;23.380;2023-09-30T01:38:28;12.60;;;6.10;;
8279;SDS011;8335;42.646;23.380;2023-09-30T01:40:56;12.17;;;6.47;;
8279;SDS011;8335;42.646;23.380;2023-09-30T01:43:22;14.68;;;6.53;;
8279;SDS011;8335;42.646;23.380;2023-09-30T01:45:49;11.60;;;5.90;;
8279;SDS011;8335;42.646;23.380;2023-09-30T01:48:16;9.57;;;5.80;;
8279;SDS011;8335;42.646;23.380;2023-09-30T01:50:43;9.03;;;5.67;;
8279;SDS011;8335;42.646;23.380;2023-09-30T01:53:10;10.30;;;6.27;;
8279;SDS011;8335;42.646;23.380;2023-09-30T01:55:37;11.27;;;6.37;;
8279;SDS011;8335;42.646;23.380;2023-09-30T01:58:05;10.73;;;6.18;;
8279;SDS011;8335;42.646;23.380;2023-09-30T02:00:32;9.93;;;6.37;;
8279;SDS011;8335;42.646;23.380;2023-09-30T02:03:00;10.75;;;6.60;;
8279;SDS011;8335;42.646;23.380;2023-09-30T02:05:27;10.90;;;6.20;;
8279;SDS011;8335;42.646;23.380;2023-09-30T02:07:53;9.33;;;6.00;;
8279;SDS011;8335;42.646;23.380;2023-09-30T02:10:20;12.17;;;6.10;;
8279;SDS011;8335;42.646;23.380;2023-09-30T02:12:47;9.73;;;6.23;;
8279;SDS011;8335;42.646;23.380;2023-09-30T02:15:15;11.90;;;6.83;;
8279;SDS011;8335;42.646;23.380;2023-09-30T02:17:42;12.00;;;6.00;;
8279;SDS011;8335;42.646;23.380;2023-09-30T02:20:11;11.57;;;6.07;;
8279;SDS011;8335;42.646;23.380;2023-09-30T02:22:41;18.83;;;6.33;;
8279;SDS011;8335;42.646;23.380;2023-09-30T02:25:08;11.43;;;5.60;;
8279;SDS011;8335;42.646;23.380;2023-09-30T02:27:37;12.77;;;6.57;;
8279;SDS011;8335;42.646;23.380;2023-09-30T02:30:05;15.93;;;6.03;;
8279;SDS011;8335;42.646;23.380;2023-09-30T02:32:34;11.07;;;6.13;;
8279;SDS011;8335;42.646;23.380;2023-09-30T02:35:01;8.93;;;5.37;;
8279;SDS011;8335;42.646;23.380;2023-09-30T02:37:31;13.37;;;6.10;;
8279;SDS011;8335;42.646;23.380;2023-09-30T02:40:00;11.33;;;6.17;;
8279;SDS011;8335;42.646;23.380;2023-09-30T02:42:29;10.80;;;6.13;;
8279;SDS011;8335;42.646;23.380;2023-09-30T02:44:55;17.33;;;7.17;;
8279;SDS011;8335;42.646;23.380;2023-09-30T02:47:22;12.13;;;6.57;;
8279;SDS011;8335;42.646;23.380;2023-09-30T02:49:50;10.87;;;6.30;;
8279;SDS011;8335;42.646;23.380;2023-09-30T02:52:17;11.50;;;5.97;;
8279;SDS011;8335;42.646;23.380;2023-09-30T02:54:44;15.70;;;6.13;;
8279;SDS011;8335;42.646;23.380;2023-09-30T02:57:11;11.23;;;6.57;;
8279;SDS011;8335;42.646;23.380;2023-09-30T02:59:37;10.90;;;7.17;;
8279;SDS011;8335;42.646;23.380;2023-09-30T03:02:05;18.70;;;6.43;;
8279;SDS011;8335;42.646;23.380;2023-09-30T03:04:31;10.57;;;6.13;;
8279;SDS011;8335;42.646;23.380;2023-09-30T03:07:00;11.40;;;6.00;;
8279;SDS011;8335;42.646;23.380;2023-09-30T03:09:27;14.97;;;6.60;;
8279;SDS011;8335;42.646;23.380;2023-09-30T03:11:54;12.10;;;6.33;;
8279;SDS011;8335;42.646;23.380;2023-09-30T03:14:21;10.47;;;6.27;;
8279;SDS011;8335;42.646;23.380;2023-09-30T03:16:48;9.73;;;6.23;;
8279;SDS011;8335;42.646;23.380;2023-09-30T03:19:15;10.50;;;6.30;;
8279;SDS011;8335;42.646;23.380;2023-09-30T03:21:42;8.17;;;6.80;;
8279;SDS011;8335;42.646;23.380;2023-09-30T03:24:11;11.70;;;6.07;;
8279;SDS011;8335;42.646;23.380;2023-09-30T03:26:38;13.17;;;6.23;;
8279;SDS011;8335;42.646;23.380;2023-09-30T03:29:06;9.40;;;6.63;;
8279;SDS011;8335;42.646;23.380;2023-09-30T03:31:34;15.43;;;6.50;;
8279;SDS011;8335;42.646;23.380;2023-09-30T03:34:01;13.23;;;7.03;;
8279;SDS011;8335;42.646;23.380;2023-09-30T03:36:29;9.60;;;6.10;;
8279;SDS011;8335;42.646;23.380;2023-09-30T03:38:56;13.83;;;6.43;;
8279;SDS011;8335;42.646;23.380;2023-09-30T03:41:25;11.60;;;6.97;;
8279;SDS011;8335;42.646;23.380;2023-09-30T03:43:52;11.80;;;6.60;;
8279;SDS011;8335;42.646;23.380;2023-09-30T03:46:19;14.77;;;6.20;;
8279;SDS011;8335;42.646;23.380;2023-09-30T03:48:46;14.90;;;6.67;;
8279;SDS011;8335;42.646;23.380;2023-09-30T03:51:12;12.23;;;6.80;;
8279;SDS011;8335;42.646;23.380;2023-09-30T03:53:39;12.00;;;6.17;;
8279;SDS011;8335;42.646;23.380;2023-09-30T03:56:06;11.57;;;6.80;;
8279;SDS011;8335;42.646;23.380;2023-09-30T03:58:34;14.70;;;6.63;;
8279;SDS011;8335;42.646;23.380;2023-09-30T04:01:03;11.03;;;6.23;;
8279;SDS011;8335;42.646;23.380;2023-09-30T04:03:30;14.47;;;6.97;;
8279;SDS011;8335;42.646;23.380;2023-09-30T04:05:58;11.03;;;6.60;;
8279;SDS011;8335;42.646;23.380;2023-09-30T04:08:25;10.10;;;6.40;;
8279;SDS011;8335;42.646;23.380;2023-09-30T04:10:51;15.77;;;7.73;;
8279;SDS011;8335;42.646;23.380;2023-09-30T04:13:18;15.83;;;6.50;;
8279;SDS011;8335;42.646;23.380;2023-09-30T04:15:47;9.20;;;7.43;;
8279;SDS011;8335;42.646;23.380;2023-09-30T04:18:14;13.80;;;6.93;;
8279;SDS011;8335;42.646;23.380;2023-09-30T04:20:41;10.30;;;6.93;;
8279;SDS011;8335;42.646;23.380;2023-09-30T04:23:10;16.37;;;7.67;;
8279;SDS011;8335;42.646;23.380;2023-09-30T04:25:37;11.47;;;7.23;;
8279;SDS011;8335;42.646;23.380;2023-09-30T04:28:05;11.23;;;6.30;;
8279;SDS011;8335;42.646;23.380;2023-09-30T04:30:32;13.67;;;7.10;;
8279;SDS011;8335;42.646;23.380;2023-09-30T04:33:00;10.07;;;6.80;;
8279;SDS011;8335;42.646;23.380;2023-09-30T04:35:29;16.63;;;7.70;;
8279;SDS011;8335;42.646;23.380;2023-09-30T04:37:56;10.73;;;7.00;;
8279;SDS011;8335;42.646;23.380;2023-09-30T04:40:26;12.80;;;7.70;;
8279;SDS011;8335;42.646;23.380;2023-09-30T04:42:53;13.37;;;7.10;;
8279;SDS011;8335;42.646;23.380;2023-09-30T04:45:23;16.33;;;7.97;;
8279;SDS011;8335;42.646;23.380;2023-09-30T04:47:51;22.60;;;8.90;;
8279;SDS011;8335;42.646;23.380;2023-09-30T04:50:19;16.13;;;8.73;;
8279;SDS011;8335;42.646;23.380;2023-09-30T04:52:46;21.43;;;8.77;;
8279;SDS011;8335;42.646;23.380;2023-09-30T04:55:13;15.80;;;7.67;;
8279;SDS011;8335;42.646;23.380;2023-09-30T04:57:41;13.20;;;7.70;;
8279;SDS011;8335;42.646;23.380;2023-09-30T05:00:11;18.33;;;7.60;;
8279;SDS011;8335;42.646;23.380;2023-09-30T05:02:38;17.37;;;7.90;;
8279;SDS011;8335;42.646;23.380;2023-09-30T05:05:06;18.37;;;7.50;;
8279;SDS011;8335;42.646;23.380;2023-09-30T05:07:37;13.77;;;7.00;;
8279;SDS011;8335;42.646;23.380;2023-09-30T05:10:04;21.80;;;7.93;;
8279;SDS011;8335;42.646;23.380;2023-09-30T05:12:35;15.70;;;7.60;;
8279;SDS011;8335;42.646;23.380;2023-09-30T05:15:02;23.00;;;8.10;;
8279;SDS011;8335;42.646;23.380;2023-09-30T05:17:31;16.57;;;7.57;;
8279;SDS011;8335;42.646;23.380;2023-09-30T05:19:58;13.07;;;7.37;;
8279;SDS011;8335;42.646;23.380;2023-09-30T05:22:25;13.90;;;7.63;;
8279;SDS011;8335;42.646;23.380;2023-09-30T05:24:53;11.57;;;7.27;;
8279;SDS011;8335;42.646;23.380;2023-09-30T05:27:21;12.57;;;7.73;;
8279;SDS011;8335;42.646;23.380;2023-09-30T05:29:48;12.30;;;6.87;;
8279;SDS011;8335;42.646;23.380;2023-09-30T05:32:15;12.33;;;7.33;;
8279;SDS011;8335;42.646;23.380;2023-09-30T05:34:41;11.27;;;6.93;;
8279;SDS011;8335;42.646;23.380;2023-09-30T05:37:08;16.20;;;7.43;;
8279;SDS011;8335;42.646;23.380;2023-09-30T05:39:37;12.40;;;7.23;;
8279;SDS011;8335;42.646;23.380;2023-09-30T05:42:05;12.90;;;8.60;;
8279;SDS011;8335;42.646;23.380;2023-09-30T05:44:32;12.50;;;7.40;;
8279;SDS011;8335;42.646;23.380;2023-09-30T05:46:59;17.97;;;8.27;;
8279;SDS011;8335;42.646;23.380;2023-09-30T05:49:26;14.63;;;7.40;;
8279;SDS011;8335;42.646;23.380;2023-09-30T05:51:53;13.10;;;7.73;;
8279;SDS011;8335;42.646;23.380;2023-09-30T05:54:20;13.73;;;7.30;;
8279;SDS011;8335;42.646;23.380;2023-09-30T05:56:47;19.23;;;7.75;;
8279;SDS011;8335;42.646;23.380;2023-09-30T05:59:16;13.23;;;7.22;;
8279;SDS011;8335;42.646;23.380;2023-09-30T06:01:42;15.10;;;7.95;;
8279;SDS011;8335;42.646;23.380;2023-09-30T06:04:11;13.73;;;8.40;;
8279;SDS011;8335;42.646;23.380;2023-09-30T06:06:38;15.35;;;8.88;;
8279;SDS011;8335;42.646;23.380;2023-09-30T06:09:05;24.92;;;8.68;;
8279;SDS011;8335;42.646;23.380;2023-09-30T06:11:33;14.30;;;8.27;;
8279;SDS011;8335;42.646;23.380;2023-09-30T06:14:01;18.60;;;8.65;;
8279;SDS011;8335;42.646;23.380;2023-09-30T06:16:32;16.10;;;8.90;;
8279;SDS011;8335;42.646;23.380;2023-09-30T06:18:59;16.70;;;9.23;;
8279;SDS011;8335;42.646;23.380;2023-09-30T06:21:27;21.75;;;8.75;;
8279;SDS011;8335;42.646;23.380;2023-09-30T06:23:54;15.90;;;8.70;;
8279;SDS011;8335;42.646;23.380;2023-09-30T06:26:21;16.17;;;9.13;;
8279;SDS011;8335;42.646;23.380;2023-09-30T06:28:50;14.82;;;8.05;;
8279;SDS011;8335;42.646;23.380;2023-09-30T06:31:19;16.15;;;7.82;;
8279;SDS011;8335;42.646;23.380;2023-09-30T06:33:47;14.77;;;7.80;;
8279;SDS011;8335;42.646;23.380;2023-09-30T06:36:14;17.50;;;8.15;;
8279;SDS011;8335;42.646;23.380;2023-09-30T06:38:41;16.38;;;8.05;;
8279;SDS011;8335;42.646;23.380;2023-09-30T06:41:14;15.88;;;7.72;;
8279;SDS011;8335;42.646;23.380;2023-09-30T06:43:41;18.15;;;7.97;;
8279;SDS011;8335;42.646;23.380;2023-09-30T06:46:08;11.93;;;8.00;;
8279;SDS011;8335;42.646;23.380;2023-09-30T06:48:36;12.48;;;7.00;;
8279;SDS011;8335;42.646;23.380;2023-09-30T06:51:06;20.65;;;7.38;;
8279;SDS011;8335;42.646;23.380;2023-09-30T06:53:33;12.10;;;6.43;;
8279;SDS011;8335;42.646;23.380;2023-09-30T06:56:04;11.32;;;6.60;;
8279;SDS011;8335;42.646;23.380;2023-09-30T06:58:31;14.65;;;6.93;;
8279;SDS011;8335;42.646;23.380;2023-09-30T07:00:58;9.77;;;6.45;;
8279;SDS011;8335;42.646;23.380;2023-09-30T07:03:25;10.68;;;6.53;;
8279;SDS011;8335;42.646;23.380;2023-09-30T07:05:51;15.10;;;6.18;;
8279;SDS011;8335;42.646;23.380;2023-09-30T07:08:20;10.70;;;5.97;;
8279;SDS011;8335;42.646;23.380;2023-09-30T07:10:47;11.85;;;5.45;;
8279;SDS011;8335;42.646;23.380;2023-09-30T07:13:15;8.60;;;5.38;;
8279;SDS011;8335;42.646;23.380;2023-09-30T07:15:43;11.38;;;5.43;;
8279;SDS011;8335;42.646;23.380;2023-09-30T07:18:09;12.38;;;5.63;;
8279;SDS011;8335;42.646;23.380;2023-09-30T07:20:37;12.32;;;5.70;;
8279;SDS011;8335;42.646;23.380;2023-09-30T07:23:04;16.58;;;5.85;;
8279;SDS011;8335;42.646;23.380;2023-09-30T07:25:32;9.43;;;5.03;;
8279;SDS011;8335;42.646;23.380;2023-09-30T07:27:59;13.93;;;5.30;;
8279;SDS011;8335;42.646;23.380;2023-09-30T07:30:27;15.25;;;6.07;;
8279;SDS011;8335;42.646;23.380;2023-09-30T07:32:54;12.25;;;5.82;;
8279;SDS011;8335;42.646;23.380;2023-09-30T07:35:20;13.85;;;4.82;;
8279;SDS011;8335;42.646;23.380;2023-09-30T07:37:47;19.20;;;5.60;;
8279;SDS011;8335;42.646;23.380;2023-09-30T07:40:17;16.10;;;6.10;;
8279;SDS011;8335;42.646;23.380;2023-09-30T07:42:45;12.70;;;5.50;;
8279;SDS011;8335;42.646;23.380;2023-09-30T07:45:11;12.20;;;5.55;;
8279;SDS011;8335;42.646;23.380;2023-09-30T07:47:42;11.27;;;5.85;;
8279;SDS011;8335;42.646;23.380;2023-09-30T07:50:11;13.95;;;5.05;;
8279;SDS011;8335;42.646;23.380;2023-09-30T07:52:38;18.40;;;6.03;;
8279;SDS011;8335;42.646;23.380;2023-09-30T07:55:07;16.83;;;5.38;;
8279;SDS011;8335;42.646;23.380;2023-09-30T07:57:34;16.88;;;6.05;;
8279;SDS011;8335;42.646;23.380;2023-09-30T08:00:03;12.65;;;5.32;;
8279;SDS011;8335;42.646;23.380;2023-09-30T08:02:34;8.25;;;4.85;;
8279;SDS011;8335;42.646;23.380;2023-09-30T08:05:01;11.95;;;4.97;;
8279;SDS011;8335;42.646;23.380;2023-09-30T08:07:28;15.48;;;4.75;;
8279;SDS011;8335;42.646;23.380;2023-09-30T08:09:55;13.68;;;4.80;;
8279;SDS011;8335;42.646;23.380;2023-09-30T08:12:22;11.35;;;4.95;;
8279;SDS011;8335;42.646;23.380;2023-09-30T08:14:49;10.80;;;4.20;;
8279;SDS011;8335;42.646;23.380;2023-09-30T08:17:18;14.18;;;5.22;;
8279;SDS011;8335;42.646;23.380;2023-09-30T08:19:44;7.78;;;4.28;;
8279;SDS011;8335;42.646;23.380;2023-09-30T08:22:12;13.00;;;4.85;;
8279;SDS011;8335;42.646;23.380;2023-09-30T08:24:39;12.35;;;5.18;;
8279;SDS011;8335;42.646;23.380;2023-09-30T08:27:06;14.65;;;5.50;;
8279;SDS011;8335;42.646;23.380;2023-09-30T08:29:33;10.52;;;4.90;;
8279;SDS011;8335;42.646;23.380;2023-09-30T08:32:02;16.88;;;5.38;;
8279;SDS011;8335;42.646;23.380;2023-09-30T08:34:30;11.75;;;5.03;;
8279;SDS011;8335;42.646;23.380;2023-09-30T08:36:58;10.35;;;5.10;;
8279;SDS011;8335;42.646;23.380;2023-09-30T08:39:26;11.45;;;5.53;;
8279;SDS011;8335;42.646;23.380;2023-09-30T08:41:54;11.13;;;5.10;;
8279;SDS011;8335;42.646;23.380;2023-09-30T08:44:21;7.60;;;4.90;;
8279;SDS011;8335;42.646;23.380;2023-09-30T08:46:48;16.63;;;5.70;;
8279;SDS011;8335;42.646;23.380;2023-09-30T08:49:17;16.50;;;5.40;;
8279;SDS011;8335;42.646;23.380;2023-09-30T08:51:47;13.85;;;5.80;;
8279;SDS011;8335;42.646;23.380;2023-09-30T08:54:15;13.27;;;5.85;;
8279;SDS011;8335;42.646;23.380;2023-09-30T08:56:43;16.20;;;6.43;;
8279;SDS011;8335;42.646;23.380;2023-09-30T08:59:14;10.70;;;5.72;;
8279;SDS011;8335;42.646;23.380;2023-09-30T09:01:41;11.75;;;5.97;;
8279;SDS011;8335;42.646;23.380;2023-09-30T09:04:08;9.43;;;6.47;;
8279;SDS011;8335;42.646;23.380;2023-09-30T09:06:36;13.10;;;6.60;;
8279;SDS011;8335;42.646;23.380;2023-09-30T09:09:14;13.60;;;7.00;;
8279;SDS011;8335;42.646;23.380;2023-09-30T09:11:42;12.88;;;6.63;;
8279;SDS011;8335;42.646;23.380;2023-09-30T09:14:09;13.60;;;6.53;;
8279;SDS011;8335;42.646;23.380;2023-09-30T09:16:36;13.23;;;6.63;;
8279;SDS011;8335;42.646;23.380;2023-09-30T09:19:12;13.65;;;6.65;;
8279;SDS011;8335;42.646;23.380;2023-09-30T09:21:46;10.75;;;6.88;;
8279;SDS011;8335;42.646;23.380;2023-09-30T09:24:27;16.05;;;6.68;;
8279;SDS011;8335;42.646;23.380;2023-09-30T09:27:03;11.82;;;6.40;;
8279;SDS011;8335;42.646;23.380;2023-09-30T09:29:31;13.95;;;6.57;;
8279;SDS011;8335;42.646;23.380;2023-09-30T09:32:07;10.85;;;6.32;;
8279;SDS011;8335;42.646;23.380;2023-09-30T09:34:35;15.00;;;6.93;;
8279;SDS011;8335;42.646;23.380;2023-09-30T09:39:56;15.15;;;6.57;;
8279;SDS011;8335;42.646;23.380;2023-09-30T09:42:24;16.73;;;7.45;;
8279;SDS011;8335;42.646;23.380;2023-09-30T09:44:52;8.25;;;6.13;;
8279;SDS011;8335;42.646;23.380;2023-09-30T09:47:22;10.95;;;6.30;;
8279;SDS011;8335;42.646;23.380;2023-09-30T09:49:49;13.32;;;5.90;;
8279;SDS011;8335;42.646;23.380;2023-09-30T09:52:17;20.40;;;5.30;;
8279;SDS011;8335;42.646;23.380;2023-09-30T09:54:45;8.65;;;5.57;;
8279;SDS011;8335;42.646;23.380;2023-09-30T09:57:14;16.02;;;5.82;;
8279;SDS011;8335;42.646;23.380;2023-09-30T09:59:43;15.32;;;6.07;;
8279;SDS011;8335;42.646;23.380;2023-09-30T10:02:12;16.60;;;6.85;;
8279;SDS011;8335;42.646;23.380;2023-09-30T10:04:40;9.75;;;5.30;;
8279;SDS011;8335;42.646;23.380;2023-09-30T10:07:08;11.63;;;5.43;;
8279;SDS011;8335;42.646;23.380;2023-09-30T10:09:39;12.95;;;5.82;;
8279;SDS011;8335;42.646;23.380;2023-09-30T10:12:10;8.77;;;5.45;;
8279;SDS011;8335;42.646;23.380;2023-09-30T10:14:39;9.23;;;5.25;;
8279;SDS011;8335;42.646;23.380;2023-09-30T10:17:06;16.23;;;4.72;;
8279;SDS011;8335;42.646;23.380;2023-09-30T10:19:33;10.95;;;5.50;;
8279;SDS011;8335;42.646;23.380;2023-09-30T10:24:52;14.82;;;4.40;;
8279;SDS011;8335;42.646;23.380;2023-09-30T10:27:29;9.70;;;4.40;;
8279;SDS011;8335;42.646;23.380;2023-09-30T10:29:59;11.65;;;4.70;;
8279;SDS011;8335;42.646;23.380;2023-09-30T10:35:50;10.00;;;3.75;;
8279;SDS011;8335;42.646;23.380;2023-09-30T10:38:38;6.82;;;3.88;;
8279;SDS011;8335;42.646;23.380;2023-09-30T10:41:08;13.88;;;4.10;;
8279;SDS011;8335;42.646;23.380;2023-09-30T10:43:37;6.70;;;3.83;;
8279;SDS011;8335;42.646;23.380;2023-09-30T10:49:15;13.27;;;3.50;;
8279;SDS011;8335;42.646;23.380;2023-09-30T10:51:58;10.73;;;4.45;;
8279;SDS011;8335;42.646;23.380;2023-09-30T10:54:27;8.57;;;4.35;;
8279;SDS011;8335;42.646;23.380;2023-09-30T10:56:54;6.90;;;4.03;;
8279;SDS011;8335;42.646;23.380;2023-09-30T10:59:24;10.95;;;4.22;;
8279;SDS011;8335;42.646;23.380;2023-09-30T11:01:54;7.65;;;3.70;;
8279;SDS011;8335;42.646;23.380;2023-09-30T11:04:21;6.53;;;3.55;;
8279;SDS011;8335;42.646;23.380;2023-09-30T11:06:48;10.23;;;4.70;;
8279;SDS011;8335;42.646;23.380;2023-09-30T11:09:16;6.45;;;3.42;;
8279;SDS011;8335;42.646;23.380;2023-09-30T11:11:45;9.00;;;4.00;;
8279;SDS011;8335;42.646;23.380;2023-09-30T11:14:21;6.65;;;3.63;;
8279;SDS011;8335;42.646;23.380;2023-09-30T11:16:49;10.80;;;4.18;;
8279;SDS011;8335;42.646;23.380;2023-09-30T11:19:18;8.82;;;3.72;;
8279;SDS011;8335;42.646;23.380;2023-09-30T11:21:46;10.25;;;4.45;;
8279;SDS011;8335;42.646;23.380;2023-09-30T11:24:14;10.20;;;4.22;;
8279;SDS011;8335;42.646;23.380;2023-09-30T11:26:42;9.00;;;3.80;;
8279;SDS011;8335;42.646;23.380;2023-09-30T11:29:09;10.23;;;4.18;;
8279;SDS011;8335;42.646;23.380;2023-09-30T11:31:37;10.43;;;4.25;;
8279;SDS011;8335;42.646;23.380;2023-09-30T11:34:04;10.10;;;4.13;;
8279;SDS011;8335;42.646;23.380;2023-09-30T11:36:35;8.18;;;4.35;;
8279;SDS011;8335;42.646;23.380;2023-09-30T11:39:04;14.57;;;4.38;;
8279;SDS011;8335;42.646;23.380;2023-09-30T11:41:34;11.18;;;4.72;;
8279;SDS011;8335;42.646;23.380;2023-09-30T11:44:03;9.60;;;4.45;;
8279;SDS011;8335;42.646;23.380;2023-09-30T11:46:32;10.18;;;4.57;;
8279;SDS011;8335;42.646;23.380;2023-09-30T11:49:23;9.13;;;4.40;;
8279;SDS011;8335;42.646;23.380;2023-09-30T11:51:52;14.80;;;4.53;;
8279;SDS011;8335;42.646;23.380;2023-09-30T11:54:19;14.00;;;4.60;;
8279;SDS011;8335;42.646;23.380;2023-09-30T11:56:47;12.20;;;4.65;;
8279;SDS011;8335;42.646;23.380;2023-09-30T11:59:15;11.13;;;4.88;;
8279;SDS011;8335;42.646;23.380;2023-09-30T12:01:44;8.80;;;4.88;;
8279;SDS011;8335;42.646;23.380;2023-09-30T12:04:13;11.48;;;4.05;;
8279;SDS011;8335;42.646;23.380;2023-09-30T12:06:42;11.70;;;4.70;;
8279;SDS011;8335;42.646;23.380;2023-09-30T12:09:10;6.35;;;5.00;;
8279;SDS011;8335;42.646;23.380;2023-09-30T12:11:39;12.45;;;4.68;;
8279;SDS011;8335;42.646;23.380;2023-09-30T12:14:08;9.45;;;4.97;;
8279;SDS011;8335;42.646;23.380;2023-09-30T12:16:35;9.10;;;4.43;;
8279;SDS011;8335;42.646;23.380;2023-09-30T12:19:02;8.48;;;5.00;;
8279;SDS011;8335;42.646;23.380;2023-09-30T12:21:30;10.57;;;4.63;;
8279;SDS011;8335;42.646;23.380;2023-09-30T12:23:57;10.25;;;5.45;;
8279;SDS011;8335;42.646;23.380;2023-09-30T12:26:25;10.45;;;5.40;;
8279;SDS011;8335;42.646;23.380;2023-09-30T12:28:52;11.50;;;5.00;;
8279;SDS011;8335;42.646;23.380;2023-09-30T12:31:19;9.13;;;4.57;;
8279;SDS011;8335;42.646;23.380;2023-09-30T12:33:46;10.68;;;5.05;;
8279;SDS011;8335;42.646;23.380;2023-09-30T12:36:16;11.55;;;5.07;;
8279;SDS011;8335;42.646;23.380;2023-09-30T12:38:42;7.80;;;4.70;;
8279;SDS011;8335;42.646;23.380;2023-09-30T12:41:09;9.80;;;4.93;;
8279;SDS011;8335;42.646;23.380;2023-09-30T12:43:38;9.43;;;5.60;;
8279;SDS011;8335;42.646;23.380;2023-09-30T12:46:07;11.63;;;4.80;;
8279;SDS011;8335;42.646;23.380;2023-09-30T12:48:33;16.75;;;5.47;;
8279;SDS011;8335;42.646;23.380;2023-09-30T12:51:00;9.75;;;5.40;;
8279;SDS011;8335;42.646;23.380;2023-09-30T12:53:29;8.30;;;5.40;;
8279;SDS011;8335;42.646;23.380;2023-09-30T12:55:57;11.68;;;5.25;;
8279;SDS011;8335;42.646;23.380;2023-09-30T12:58:24;11.35;;;5.07;;
8279;SDS011;8335;42.646;23.380;2023-09-30T13:00:54;11.60;;;5.25;;
8279;SDS011;8335;42.646;23.380;2023-09-30T13:03:21;9.68;;;4.55;;
8279;SDS011;8335;42.646;23.380;2023-09-30T13:05:48;12.18;;;5.20;;
8279;SDS011;8335;42.646;23.380;2023-09-30T13:08:15;8.82;;;4.55;;
8279;SDS011;8335;42.646;23.380;2023-09-30T13:10:42;9.40;;;4.53;;
8279;SDS011;8335;42.646;23.380;2023-09-30T13:13:10;12.43;;;5.03;;
8279;SDS011;8335;42.646;23.380;2023-09-30T13:15:37;11.88;;;4.55;;
8279;SDS011;8335;42.646;23.380;2023-09-30T13:18:07;15.65;;;4.95;;
8279;SDS011;8335;42.646;23.380;2023-09-30T13:20:33;12.65;;;5.22;;
8279;SDS011;8335;42.646;23.380;2023-09-30T13:23:00;6.70;;;4.78;;
8279;SDS011;8335;42.646;23.380;2023-09-30T13:25:28;10.32;;;4.93;;
8279;SDS011;8335;42.646;23.380;2023-09-30T13:27:55;12.48;;;4.85;;
8279;SDS011;8335;42.646;23.380;2023-09-30T13:30:22;14.85;;;5.38;;
8279;SDS011;8335;42.646;23.380;2023-09-30T13:32:48;10.57;;;5.15;;
8279;SDS011;8335;42.646;23.380;2023-09-30T13:35:17;9.82;;;5.40;;
8279;SDS011;8335;42.646;23.380;2023-09-30T13:37:44;8.82;;;5.15;;
8279;SDS011;8335;42.646;23.380;2023-09-30T13:40:11;9.73;;;5.05;;
8279;SDS011;8335;42.646;23.380;2023-09-30T13:42:38;13.85;;;4.88;;
8279;SDS011;8335;42.646;23.380;2023-09-30T13:45:05;11.10;;;5.07;;
8279;SDS011;8335;42.646;23.380;2023-09-30T13:47:33;9.10;;;5.13;;
8279;SDS011;8335;42.646;23.380;2023-09-30T13:50:00;7.53;;;5.05;;
8279;SDS011;8335;42.646;23.380;2023-09-30T13:52:30;7.80;;;5.18;;
8279;SDS011;8335;42.646;23.380;2023-09-30T13:54:57;13.15;;;5.30;;
8279;SDS011;8335;42.646;23.380;2023-09-30T13:57:23;12.10;;;5.18;;
8279;SDS011;8335;42.646;23.380;2023-09-30T13:59:50;11.55;;;5.40;;
8279;SDS011;8335;42.646;23.380;2023-09-30T14:02:17;9.50;;;4.90;;
8279;SDS011;8335;42.646;23.380;2023-09-30T14:04:44;12.98;;;5.32;;
8279;SDS011;8335;42.646;23.380;2023-09-30T14:07:11;12.77;;;5.22;;
8279;SDS011;8335;42.646;23.380;2023-09-30T14:09:39;13.13;;;5.25;;
8279;SDS011;8335;42.646;23.380;2023-09-30T14:12:06;9.38;;;4.90;;
8279;SDS011;8335;42.646;23.380;2023-09-30T14:14:33;10.65;;;5.50;;
8279;SDS011;8335;42.646;23.380;2023-09-30T14:17:00;9.63;;;5.00;;
8279;SDS011;8335;42.646;23.380;2023-09-30T14:19:32;10.93;;;4.95;;
8279;SDS011;8335;42.646;23.380;2023-09-30T14:21:59;7.38;;;5.30;;
8279;SDS011;8335;42.646;23.380;2023-09-30T14:24:26;7.78;;;5.07;;
8279;SDS011;8335;42.646;23.380;2023-09-30T14:26:54;8.25;;;4.32;;
8279;SDS011;8335;42.646;23.380;2023-09-30T14:29:21;11.13;;;5.10;;
8279;SDS011;8335;42.646;23.380;2023-09-30T14:31:49;11.60;;;4.28;;
8279;SDS011;8335;42.646;23.380;2023-09-30T14:34:16;9.82;;;4.20;;
8279;SDS011;8335;42.646;23.380;2023-09-30T14:36:43;13.85;;;4.88;;
8279;SDS011;8335;42.646;23.380;2023-09-30T14:39:10;9.68;;;4.53;;
8279;SDS011;8335;42.646;23.380;2023-09-30T14:41:37;11.68;;;4.38;;
8279;SDS011;8335;42.646;23.380;2023-09-30T14:44:05;11.10;;;4.80;;
8279;SDS011;8335;42.646;23.380;2023-09-30T14:46:33;9.50;;;5.20;;
8279;SDS011;8335;42.646;23.380;2023-09-30T14:49:00;8.30;;;5.35;;
8279;SDS011;8335;42.646;23.380;2023-09-30T14:51:27;9.85;;;5.05;;
8279;SDS011;8335;42.646;23.380;2023-09-30T14:53:53;9.90;;;5.25;;
8279;SDS011;8335;42.646;23.380;2023-09-30T14:56:20;7.20;;;4.50;;
8279;SDS011;8335;42.646;23.380;2023-09-30T14:58:47;10.32;;;4.45;;
8279;SDS011;8335;42.646;23.380;2023-09-30T15:01:15;11.02;;;5.25;;
8279;SDS011;8335;42.646;23.380;2023-09-30T15:03:42;10.60;;;4.72;;
8279;SDS011;8335;42.646;23.380;2023-09-30T15:06:09;8.35;;;4.63;;